Prospect, Ohio
Current Conditions -  °F | °C
As of 12:17 PM on Friday 24 Oct 2014 (Local Time) from KDLZ Reporting Station
Clear Clear  
Wind Chill: 55°   Ceiling: Unl
Heat Index: 55°   Visibility: 10mi
Dew Point: 37°   Wind: 5mph
Humidity: 51%   Direction: 250°WSW
Pressure: 30.11"   Gusts: NA
Location:  40.45°N, 83.19°W
Report Text: KDLZ 241617Z AUTO 25004KT 10SM CLR 13/03 A3011 RMK AO2
Loading
Personal Weather Stations






























Interactive Weather Map
Tropical Storm Tracking
New forecast layout! Learn more

10-Day Weather Forecast

Advertisements
Track Severe Weather on mobile